Terminal Aerodrome Forecast
Issued by NWS

Home | Current Version | Previous Version | Text Only | Print | Product List | Glossary On
Versions: 1 2 3 4 5 6 7 8 9 10 11 12 13 14 15 16
000
FTUS44 KCRP 262000 AAA
TAFALI
TAF AMD
KALI 262000Z 2620/2718 14014G20KT P6SM VCTS SCT050CB BKN250
      TEMPO 2620/2623 VRB25G35KT 2SM TSRA BR BKN035CB
     FM270100 14011KT P6SM SCT250
     FM270900 13005KT P6SM SCT015
     FM271400 16010KT P6SM SCT030 SCT250=

USA.gov is the U.S. government's official web portal to all federal, state and local government web resources and services.